Latest Weather Observations for Deniliquin

IDN60801

Issued at 11:35 am EST Sunday 21 September 2014 (issued every 30 minutes, with the page automatically refreshed every 10 minutes)

About weather observations | Map of weather stations | Latest weather observations for NSW | Other Formats
Station Details ID: 074258 Name: DENILIQUIN AIRPORT AWS Lat: -35.56 Lon: 144.95 Height: 94.0 m
Data from the previous 72 hours. | See also: Recent months at Deniliquin
Date/Time
EST
Temp
°C
App
Temp
°C
Dew
Point
Rel
Hum
%
Delta-T
°C
Wind Press
QNH
hPa
Press
MSL
hPa
Rain
since 9 am
mm
Dir
 
Spd
km/h
Gust
km/h
Spd
kts
Gust
kts
21/11:30am 17.6 14.7 4.9 43 6.1 E 9 17 5 9 1029.8 1029.8 0.0
21/11:00am 17.1 14.0 5.4 46 5.6 E 11 17 6 9 1030.0 1030.0 0.0
21/10:30am 15.9 12.3 4.9 48 5.2 ESE 13 20 7 11 1030.3 1030.3 0.0
21/10:00am 15.0 11.0 5.0 51 4.7 ESE 15 20 8 11 1030.3 1030.3 0.0
21/09:30am 14.0 9.3 5.1 55 4.2 ESE 19 24 10 13 1030.2 1030.2 0.0
21/09:00am 13.1 8.4 5.0 58 3.7 E 19 22 10 12 1030.1 1030.1 0.0
21/08:30am 11.4 7.4 5.1 65 2.9 SE 15 20 8 11 1030.1 1030.1 0.0
21/08:00am 9.6 5.1 4.4 70 2.3 SE 17 20 9 11 1029.8 1029.8 0.0
21/07:30am 8.2 3.6 5.5 83 1.2 SE 19 24 10 13 1029.6 1029.6 0.0
21/07:00am 5.9 3.2 5.6 98 0.1 SSE 9 15 5 8 1029.5 1029.5 0.0
21/06:30am 2.3 -1.1 1.7 96 0.2 S 9 13 5 7 1029.3 1029.3 0.0
21/06:00am 2.5 -0.9 2.1 97 0.2 S 9 11 5 6 1028.8 1028.8 0.0
21/05:30am 2.7 -1.4 2.3 97 0.2 SSW 13 17 7 9 1028.5 1028.5 0.0
21/05:00am 1.4 -2.2 0.8 96 0.2 SSW 9 11 5 6 1027.8 1027.8 0.0
21/04:30am 2.0 -1.5 1.4 96 0.2 SSW 9 13 5 7 1027.2 1027.2 0.0
21/04:00am 2.0 -2.3 1.3 95 0.3 SSW 13 15 7 8 1026.9 1026.9 0.0
21/03:30am 2.1 -1.8 1.4 95 0.3 SW 11 13 6 7 1026.9 1026.9 0.0
21/03:00am 2.6 -1.6 1.9 95 0.3 SW 13 15 7 8 1026.9 1026.9 0.0
21/02:30am 3.2 -0.5 2.5 95 0.3 SW 11 11 6 6 1027.1 1027.1 0.0
21/02:00am 3.5 -0.2 2.6 94 0.4 SW 11 13 6 7 1027.3 1027.3 0.0
21/01:30am 3.9 0.3 2.9 93 0.4 SW 11 13 6 7 1027.7 1027.7 0.0
21/01:00am 4.6 1.1 3.3 91 0.5 SW 11 11 6 6 1027.7 1027.7 0.0
21/12:30am 5.5 1.4 4.2 91 0.6 SW 15 17 8 9 1027.9 1027.9 0.0
21/12:00am 6.3 2.2 4.5 88 0.8 SW 15 17 8 9 1027.8 1027.8 0.0
 
Date/Time
EST
Temp
°C
App
Temp
°C
Dew
Point
Rel
Hum
%
Delta-T
°C
Wind Press
QNH
hPa
Press
MSL
hPa
Rain
since 9 am
mm
Dir
 
Spd
km/h
Gust
km/h
Spd
kts
Gust
kts
20/11:30pm 6.7 2.7 4.7 87 0.9 SW 15 17 8 9 1027.8 1027.8 0.0
20/11:00pm 6.8 2.7 4.3 84 1.1 SSW 15 19 8 10 1028.0 1028.0 0.0
20/10:30pm 5.8 1.1 3.1 83 1.1 SW 17 19 9 10 1028.0 1028.0 0.0
20/10:00pm 6.4 2.0 2.9 78 1.4 SW 15 19 8 10 1027.9 1027.9 0.0
20/09:30pm 7.6 3.7 3.3 74 1.8 SSW 13 17 7 9 1027.9 1027.9 0.0
20/09:00pm 8.0 3.7 3.5 73 1.9 SSW 15 19 8 10 1027.8 1027.8 0.0
20/08:30pm 9.3 5.4 3.3 66 2.6 S 13 15 7 8 1027.6 1027.6 0.0
20/08:00pm 10.4 7.3 3.7 63 2.9 S 9 9 5 5 1027.3 1027.3 0.0
20/07:30pm 10.6 6.7 3.4 61 3.2 S 13 15 7 8 1027.1 1027.1 0.0
20/07:00pm 12.7 8.1 3.6 54 4.1 SSW 17 20 9 11 1026.4 1026.5 0.0
20/06:30pm 13.8 8.8 3.6 50 4.6 SSW 19 22 10 12 1026.1 1026.2 0.0
20/06:00pm 15.5 10.3 3.6 45 5.4 SSW 20 28 11 15 1025.5 1025.6 0.0
20/05:30pm 16.9 12.1 4.6 44 5.8 S 19 26 10 14 1025.1 1025.2 0.0
20/05:00pm 17.5 12.6 4.1 41 6.3 S 19 24 10 13 1024.7 1024.8 0.0
20/04:30pm 17.8 12.6 3.7 39 6.6 S 20 22 11 12 1024.6 1024.7 0.0
20/04:00pm 18.1 13.0 3.2 37 6.9 SSE 19 26 10 14 1024.5 1024.6 0.0
20/03:30pm 18.4 12.8 3.5 37 7.0 SSW 22 30 12 16 1024.5 1024.6 0.0
20/03:00pm 18.5 12.9 3.2 36 7.1 S 22 32 12 17 1024.6 1024.7 0.0
20/02:30pm 18.6 13.3 2.9 35 7.3 SW 20 32 11 17 1024.7 1024.8 0.0
20/02:00pm 18.6 11.8 2.9 35 7.3 SSW 28 35 15 19 1024.8 1024.9 0.0
20/01:30pm 18.0 13.6 2.7 36 7.1 S 15 22 8 12 1024.9 1025.0 0.0
20/01:00pm 17.6 12.3 3.1 38 6.7 S 20 28 11 15 1025.3 1025.4 0.0
20/12:30pm 16.8 11.6 3.5 41 6.2 S 20 30 11 16 1025.6 1025.7 0.0
20/12:00pm 16.7 10.7 3.4 41 6.1 SSW 24 32 13 17 1026.0 1026.1 0.0
20/11:30am 15.7 9.6 2.5 41 5.9 S 24 32 13 17 1026.3 1026.4 0.0
20/11:00am 15.1 9.7 2.3 42 5.7 S 20 32 11 17 1026.3 1026.4 0.0
20/10:30am 14.8 9.5 3.0 45 5.3 SSW 20 30 11 16 1026.6 1026.6 0.0
20/10:00am 13.9 8.3 3.4 49 4.7 S 22 35 12 19 1026.8 1026.8 0.0
20/09:30am 13.1 7.2 3.7 53 4.2 S 24 32 13 17 1026.9 1026.9 0.0
20/09:00am 12.0 6.6 4.7 61 3.3 SSW 22 32 12 17 1026.9 1026.9 0.0
20/08:30am 10.2 5.6 5.8 74 2.0 SSW 19 24 10 13 1026.7 1026.7 0.0
20/08:00am 7.9 3.7 5.9 87 0.9 SSW 17 22 9 12 1026.3 1026.4 0.0
20/07:30am 5.4 1.8 5.1 98 0.1 SW 13 15 7 8 1026.1 1026.2 0.0
20/07:00am 3.4 -0.9 3.1 98 0.1 WSW 15 17 8 9 1025.9 1026.0 0.0
20/06:30am 2.3 -2.2 1.9 97 0.2 WSW 15 17 8 9 1025.6 1025.7 0.0
20/06:00am 2.3 -1.9 1.7 96 0.2 WSW 13 15 7 8 1025.1 1025.2 0.0
20/05:30am 2.6 -1.5 2.0 96 0.2 WSW 13 15 7 8 1024.8 1024.9 0.0
20/05:00am 2.8 -0.9 2.1 95 0.3 WSW 11 13 6 7 1024.6 1024.7 0.0
20/04:30am 3.1 -1.0 2.4 95 0.3 WSW 13 15 7 8 1024.3 1024.4 0.0
20/04:00am 2.4 -1.8 1.4 93 0.4 SW 13 17 7 9 1024.1 1024.1 0.0
20/03:30am 2.4 -1.9 1.1 91 0.5 SW 13 13 7 7 1024.0 1024.0 0.0
20/03:00am 2.6 -1.3 1.0 89 0.6 SW 11 13 6 7 1023.9 1023.9 0.0
20/02:30am 3.3 -0.5 1.7 89 0.6 SW 11 11 6 6 1024.0 1024.0 0.0
20/02:00am 3.3 -0.6 1.2 86 0.8 SW 11 11 6 6 1024.0 1024.0 0.0
20/01:30am 3.6 -0.3 1.3 85 0.9 SW 11 13 6 7 1024.3 1024.4 0.0
20/01:00am 3.9 0.4 1.1 82 1.1 SSW 9 11 5 6 1024.4 1024.5 0.0
20/12:30am 5.0 1.2 1.8 80 1.3 S 11 13 6 7 1024.3 1024.4 0.0
20/12:00am 4.5 0.2 1.0 78 1.4 SSW 13 15 7 8 1024.3 1024.4 0.0
 
Date/Time
EST
Temp
°C
App
Temp
°C
Dew
Point
Rel
Hum
%
Delta-T
°C
Wind Press
QNH
hPa
Press
MSL
hPa
Rain
since 9 am
mm
Dir
 
Spd
km/h
Gust
km/h
Spd
kts
Gust
kts
19/11:30pm 5.6 1.8 1.9 77 1.5 S 11 13 6 7 1024.2 1024.2 0.0
19/11:00pm 5.7 1.9 1.6 75 1.6 S 11 13 6 7 1024.6 1024.7 0.0
19/10:30pm 6.1 3.1 1.8 74 1.7 SSE 7 9 4 5 1024.5 1024.6 0.0
19/10:00pm 6.9 2.7 1.8 70 2.1 SSE 13 15 7 8 1024.5 1024.6 0.0
19/09:30pm 7.4 3.2 1.7 67 2.3 S 13 13 7 7 1024.5 1024.6 0.0
19/09:00pm 7.5 2.9 1.8 67 2.3 SW 15 17 8 9 1024.4 1024.5 0.0
19/08:30pm 8.2 4.4 1.8 64 2.6 S 11 15 6 8 1024.3 1024.4 0.0
19/08:00pm 7.5 3.3 1.6 66 2.4 SW 13 15 7 8 1024.0 1024.0 0.0
19/07:30pm 8.4 4.6 1.6 62 2.8 SW 11 13 6 7 1023.7 1023.7 0.0
19/07:00pm 10.6 6.4 1.7 54 3.7 SW 13 13 7 7 1023.4 1023.4 0.0
19/06:30pm 11.9 8.1 1.8 50 4.3 SW 11 13 6 7 1023.3 1023.3 0.0
19/06:00pm 14.1 9.9 1.4 42 5.5 SSW 13 15 7 8 1023.1 1023.1 0.0
19/05:30pm 15.9 10.3 0.9 36 6.5 SSW 20 26 11 14 1022.8 1022.8 0.0
19/05:00pm 16.4 9.6 0.5 34 6.9 S 26 30 14 16 1022.6 1022.6 0.0
19/04:30pm 16.9 10.8 0.5 33 7.2 SSW 22 32 12 17 1022.5 1022.5 0.0
19/04:00pm 17.0 11.1 1.8 36 6.8 SSW 22 32 12 17 1022.6 1022.6 0.0
19/03:30pm 17.2 11.9 1.6 35 7.0 S 19 28 10 15 1022.5 1022.5 0.0
19/03:00pm 17.1 11.2 1.9 36 6.8 SW 22 32 12 17 1022.5 1022.5 0.0
19/02:30pm 17.0 11.4 1.4 35 6.9 SW 20 30 11 16 1022.5 1022.5 0.0
19/02:00pm 17.1 11.3 2.3 37 6.7 SSW 22 33 12 18 1022.8 1022.8 0.0
19/01:30pm 16.3 10.3 1.2 36 6.7 SW 22 28 12 15 1023.1 1023.1 0.0
19/01:00pm 15.7 9.8 1.4 38 6.3 SSW 22 35 12 19 1023.5 1023.5 0.0
19/12:30pm 15.8 10.0 2.2 40 6.1 SW 22 32 12 17 1023.9 1023.9 0.0
19/12:00pm 15.4 9.9 0.8 37 6.3 SSW 19 30 10 16 1024.2 1024.2 0.0
19/11:30am 14.4 9.5 2.0 43 5.5 SSW 17 22 9 12 1024.6 1024.7 0.0
19/11:00am 13.7 8.8 2.3 46 5.0 SSW 17 22 9 12 1024.9 1025.0 0.0
19/10:30am 13.2 8.4 2.4 48 4.7 S 17 24 9 13 1025.2 1025.3 0.0
19/10:00am 12.9 7.8 3.0 51 4.4 SSW 19 26 10 14 1025.4 1025.5 0.0
19/09:30am 11.9 7.6 3.2 55 3.8 S 15 22 8 12 1025.7 1025.8 0.0
19/09:00am 10.3 6.5 3.8 64 2.9 SSW 13 17 7 9 1025.7 1025.8 0.0
19/08:30am 9.0 4.9 4.6 74 2.0 SW 15 17 8 9 1025.8 1025.9 0.0
19/08:00am 6.9 2.4 4.0 82 1.2 SSW 17 20 9 11 1025.6 1025.7 0.0
19/07:30am 4.4 -0.1 4.0 97 0.2 SW 17 20 9 11 1025.4 1025.5 0.0
19/07:00am 1.7 -2.2 1.3 97 0.2 SW 11 13 6 7 1025.1 1025.2 0.0
19/06:30am 0.6 -3.5 0.0 96 0.2 SW 11 13 6 7 1024.8 1024.9 0.0
19/06:00am 0.1 -4.1 -0.6 95 0.3 WSW 11 13 6 7 1024.3 1024.4 0.0
19/05:30am 0.5 -2.8 -0.2 95 0.3 WSW 7 9 4 5 1024.2 1024.2 0.0
19/05:00am 0.3 -3.5 -0.5 94 0.3 W 9 9 5 5 1024.1 1024.1 0.0
19/04:30am 0.2 -3.2 -0.6 94 0.3 WNW 7 9 4 5 1024.1 1024.1 0.0
19/04:00am 0.4 -2.8 -0.6 93 0.4 WNW 6 7 3 4 1023.9 1023.9 0.0
19/03:30am 0.9 -2.4 -0.1 93 0.4 SW 7 9 4 5 1023.6 1023.6 0.0
19/03:00am 0.9 -2.5 -0.4 91 0.5 WSW 7 9 4 5 1023.5 1023.5 0.0
19/02:30am 1.5 -1.8 0.2 91 0.5 W 7 9 4 5 1023.6 1023.6 0.0
19/02:00am 2.1 -1.9 0.6 90 0.6 W 11 13 6 7 1023.9 1023.9 0.0
19/01:30am 2.4 -0.8 0.6 88 0.7 WNW 7 11 4 6 1024.1 1024.1 0.0
19/01:00am 2.8 -0.7 1.0 88 0.7 WSW 9 9 5 5 1024.1 1024.1 0.0
19/12:30am 2.8 -0.4 0.5 85 0.9 WSW 7 9 4 5 1024.4 1024.5 0.0
19/12:00am 3.3 -0.3 0.7 83 1.0 SSW 9 9 5 5 1024.4 1024.5 0.0
 
Date/Time
EST
Temp
°C
App
Temp
°C
Dew
Point
Rel
Hum
%
Delta-T
°C
Wind Press
QNH
hPa
Press
MSL
hPa
Rain
since 9 am
mm
Dir
 
Spd
km/h
Gust
km/h
Spd
kts
Gust
kts
18/11:30pm 3.7 -0.3 0.7 81 1.2 S 11 13 6 7 1024.5 1024.6 0.0
18/11:00pm 4.0 0.1 1.2 82 1.1 S 11 13 6 7 1024.7 1024.8 0.0
18/10:30pm 3.8 -0.2 0.7 80 1.2 SSW 11 13 6 7 1024.5 1024.6 0.0
18/10:00pm 4.0 0.0 0.2 76 1.4 SSW 11 13 6 7 1024.4 1024.5 0.0
18/09:30pm 5.4 2.2 0.8 72 1.8 WSW 7 9 4 5 1024.3 1024.4 0.0
18/09:00pm 6.5 3.6 1.4 70 2.0 WSW 6 7 3 4 1024.0 1024.0 0.0
18/08:30pm 6.6 3.0 0.9 67 2.3 WSW 9 9 5 5 1023.7 1023.7 0.0
18/08:00pm 7.5 4.1 1.6 66 2.4 W 9 13 5 7 1023.5 1023.5 0.0
18/07:30pm 7.6 3.6 0.8 62 2.7 WSW 11 13 6 7 1023.3 1023.3 0.0
18/07:00pm 9.1 4.4 0.8 56 3.4 WSW 15 17 8 9 1023.0 1023.0 0.0
18/06:30pm 9.8 5.1 0.9 54 3.7 WSW 15 17 8 9 1022.9 1022.9 0.0
18/06:00pm 12.2 7.5 0.9 46 4.7 WSW 15 19 8 10 1022.8 1022.8 0.0
18/05:30pm 14.2 8.7 0.8 40 5.7 WSW 19 22 10 12 1022.6 1022.6 0.0
18/05:00pm 14.8 7.9 0.3 37 6.2 WSW 26 32 14 17 1022.4 1022.4 0.0
18/04:30pm 14.3 8.8 0.9 40 5.8 SW 19 22 10 12 1022.2 1022.2 0.0
18/04:00pm 14.4 8.0 1.0 40 5.8 SSW 24 32 13 17 1022.1 1022.1 0.0
18/03:30pm 14.8 8.5 1.3 40 5.9 SW 24 32 13 17 1022.1 1022.1 0.0
18/03:00pm 15.1 8.7 0.9 38 6.1 SW 24 33 13 18 1022.2 1022.2 0.0
18/02:30pm 15.9 9.5 0.9 36 6.5 SW 24 32 13 17 1022.1 1022.1 0.0
18/02:00pm 14.7 8.4 1.3 40 5.8 WSW 24 32 13 17 1022.4 1022.4 0.0
18/01:30pm 14.3 7.5 0.9 40 5.8 SSW 26 37 14 20 1022.6 1022.6 0.0
18/01:00pm 13.8 8.5 1.8 44 5.2 SSW 19 28 10 15 1022.7 1022.7 0.0
18/12:30pm 15.2 10.0 2.4 42 5.7 SW 19 26 10 14 1022.9 1022.9 0.0
18/12:00pm 13.9 8.1 2.2 45 5.1 WSW 22 30 12 16 1023.2 1023.2 0.0

Other Formats:

Comma delimited format used in spreadsheet applications
http://www.bom.gov.au/fwo/IDN60801/IDN60801.95869.axf

JavaScript Object Notation format (JSON) in row-major order
http://www.bom.gov.au/fwo/IDN60801/IDN60801.95869.json